Time;durP1;ratioP1;P1;durP2;ratioP2;P2;SDS_P1;SDS_P2;PMS_P1;PMS_P2;Temp;Humidity;BMP_temperature;BMP_pressure;BME280_temperature;BME280_humidity;BME280_pressure;Samples;Min_cycle;Max_cycle;Signal;HPM_P1;HPM_P2
2023/12/30 00:00:34;;;;;;;3.08;1.55;;;12.50;49.00;;;;;;5088276;27;20059;-64
2023/12/30 00:03:04;;;;;;;3.33;1.45;;;12.50;49.10;;;;;;5088265;27;21263;-64
2023/12/30 00:05:32;;;;;;;3.78;1.48;;;12.50;49.20;;;;;;5079617;27;20079;-64
2023/12/30 00:08:02;;;;;;;1.95;1.50;;;12.50;49.20;;;;;;5057921;28;20434;-63
2023/12/30 00:10:30;;;;;;;10.20;1.40;;;12.60;49.80;;;;;;5066194;28;20520;-64
2023/12/30 00:13:02;;;;;;;2.03;1.38;;;12.60;49.10;;;;;;5059427;28;20506;-65
2023/12/30 00:15:31;;;;;;;4.25;1.92;;;12.60;49.10;;;;;;5072310;28;20593;-65
2023/12/30 00:17:59;;;;;;;2.08;1.27;;;12.60;49.00;;;;;;5064589;27;20511;-63
2023/12/30 00:20:27;;;;;;;3.50;1.77;;;12.60;49.00;;;;;;5073233;28;20052;-65
2023/12/30 00:22:55;;;;;;;2.33;1.70;;;12.60;49.00;;;;;;5074040;28;20055;-64
2023/12/30 00:25:23;;;;;;;3.83;1.63;;;12.50;49.60;;;;;;5065257;28;20048;-63
2023/12/30 00:27:53;;;;;;;3.78;2.03;;;12.40;49.00;;;;;;5060877;28;20048;-64
2023/12/30 00:30:22;;;;;;;2.28;1.50;;;12.40;49.20;;;;;;5060218;28;20106;-64
2023/12/30 00:32:50;;;;;;;5.18;1.63;;;12.40;49.10;;;;;;5069323;28;20063;-64
2023/12/30 00:35:19;;;;;;;4.05;1.40;;;12.40;49.10;;;;;;5069868;28;20544;-64
2023/12/30 00:37:47;;;;;;;2.25;1.63;;;12.30;49.40;;;;;;5060691;28;20047;-67
2023/12/30 00:40:15;;;;;;;9.23;1.92;;;12.30;49.10;;;;;;5067617;28;20509;-65
2023/12/30 00:42:53;;;;;;;2.67;1.83;;;12.20;49.10;;;;;;5072161;28;20105;-64
2023/12/30 00:45:23;;;;;;;2.58;1.65;;;12.10;49.10;;;;;;5066805;28;20067;-65
2023/12/30 00:47:52;;;;;;;2.55;1.70;;;12.00;49.20;;;;;;5060315;28;20087;-64
2023/12/30 00:50:20;;;;;;;4.07;2.20;;;11.90;49.20;;;;;;5067475;28;20047;-65
2023/12/30 00:52:48;;;;;;;2.30;1.70;;;11.90;49.40;;;;;;5070852;28;20060;-63
2023/12/30 00:55:17;;;;;;;3.00;2.15;;;11.90;49.40;;;;;;5068429;28;20052;-64
2023/12/30 00:57:45;;;;;;;3.78;1.65;;;11.90;49.50;;;;;;5063500;28;20052;-66
2023/12/30 01:00:15;;;;;;;9.55;2.17;;;11.90;49.40;;;;;;5068870;28;20048;-64
2023/12/30 01:02:44;;;;;;;3.50;1.65;;;11.90;49.50;;;;;;5069125;28;20059;-65
2023/12/30 01:05:12;;;;;;;2.72;1.80;;;12.00;49.60;;;;;;5055724;28;20057;-64
2023/12/30 01:07:41;;;;;;;2.17;1.85;;;12.00;49.50;;;;;;5051246;28;20075;-64
2023/12/30 01:10:09;;;;;;;3.13;1.40;;;12.10;49.50;;;;;;5049685;28;20053;-64
2023/12/30 01:12:37;;;;;;;1.50;1.33;;;12.20;49.40;;;;;;5054796;28;20756;-65
2023/12/30 01:15:07;;;;;;;4.10;1.63;;;12.20;49.40;;;;;;5054727;28;20051;-64
2023/12/30 01:17:35;;;;;;;3.70;1.70;;;12.20;49.40;;;;;;5052240;28;20056;-65
2023/12/30 01:20:05;;;;;;;3.67;1.90;;;12.30;49.40;;;;;;5039887;28;20052;-64
2023/12/30 01:22:36;;;;;;;3.45;1.60;;;12.30;49.30;;;;;;5049076;28;20049;-64
2023/12/30 01:25:05;;;;;;;2.20;1.70;;;12.30;49.20;;;;;;5051237;28;20040;-64
2023/12/30 01:27:33;;;;;;;2.70;1.42;;;12.20;49.20;;;;;;5051903;28;20048;-64
2023/12/30 01:30:02;;;;;;;6.32;2.00;;;12.20;49.20;;;;;;5048444;28;20696;-64
2023/12/30 01:32:31;;;;;;;7.22;2.60;;;12.20;49.40;;;;;;5050649;28;20053;-66
2023/12/30 01:34:59;;;;;;;9.88;5.28;;;12.20;49.40;;;;;;5051792;28;20273;-65
2023/12/30 01:37:29;;;;;;;18.60;6.05;;;12.30;49.40;;;;;;5052009;28;20509;-64
2023/12/30 01:39:57;;;;;;;3.88;1.45;;;12.40;49.40;;;;;;5046311;28;20101;-64
2023/12/30 01:42:25;;;;;;;1.73;1.40;;;12.40;49.30;;;;;;5052354;28;20060;-65
2023/12/30 01:44:53;;;;;;;3.25;1.48;;;12.50;49.20;;;;;;5055854;28;20063;-65
2023/12/30 01:47:22;;;;;;;2.88;1.70;;;12.50;49.20;;;;;;5053820;28;20053;-64
2023/12/30 01:49:50;;;;;;;5.97;1.70;;;12.50;49.20;;;;;;5045334;28;20518;-65
2023/12/30 01:52:19;;;;;;;3.00;1.60;;;12.50;49.10;;;;;;5053161;28;20486;-64
2023/12/30 01:54:49;;;;;;;2.00;1.42;;;12.60;49.20;;;;;;5055255;28;20044;-64
2023/12/30 01:57:18;;;;;;;2.45;1.75;;;12.60;49.20;;;;;;5054786;28;20495;-64
2023/12/30 01:59:47;;;;;;;2.35;1.20;;;12.60;49.30;;;;;;5048503;28;20415;-66
2023/12/30 02:02:15;;;;;;;2.83;1.92;;;12.60;49.20;;;;;;5050497;28;20063;-64
2023/12/30 02:04:44;;;;;;;7.72;1.63;;;12.60;49.10;;;;;;5049630;28;20119;-65
2023/12/30 02:07:13;;;;;;;3.58;1.80;;;12.60;49.10;;;;;;5054566;28;20521;-64
2023/12/30 02:09:41;;;;;;;2.10;1.58;;;12.60;49.10;;;;;;5052453;28;20056;-64
2023/12/30 02:12:11;;;;;;;4.93;1.75;;;12.60;49.10;;;;;;5056502;28;20067;-64
2023/12/30 02:14:39;;;;;;;4.72;1.52;;;12.50;49.60;;;;;;5050369;28;20052;-65
2023/12/30 02:17:07;;;;;;;5.20;1.95;;;12.50;49.10;;;;;;5053214;28;20075;-65
2023/12/30 02:19:35;;;;;;;2.13;1.77;;;12.50;49.10;;;;;;5046628;28;20114;-63
2023/12/30 02:22:04;;;;;;;2.58;1.70;;;12.40;49.10;;;;;;5046339;28;21429;-65
2023/12/30 02:24:34;;;;;;;2.35;1.50;;;12.40;49.10;;;;;;5053638;28;20059;-66
2023/12/30 02:27:02;;;;;;;2.53;1.42;;;12.40;49.20;;;;;;5051528;28;20510;-64
2023/12/30 02:29:30;;;;;;;4.50;1.55;;;12.40;49.80;;;;;;5053651;28;20060;-64
2023/12/30 02:31:58;;;;;;;4.88;1.63;;;12.50;49.20;;;;;;5046721;28;20049;-65
2023/12/30 02:34:27;;;;;;;3.58;1.70;;;12.50;49.20;;;;;;5054914;28;20552;-65
2023/12/30 02:36:56;;;;;;;1.83;1.30;;;12.50;49.20;;;;;;5052424;28;20058;-65
2023/12/30 02:39:25;;;;;;;3.42;1.70;;;12.50;49.20;;;;;;5049337;28;20048;-65
2023/12/30 02:41:54;;;;;;;2.28;1.55;;;12.50;49.00;;;;;;5042023;28;20060;-64
2023/12/30 02:44:22;;;;;;;2.28;1.30;;;12.40;49.10;;;;;;5052299;28;20049;-64
2023/12/30 02:46:51;;;;;;;3.22;1.85;;;12.40;49.10;;;;;;5053467;28;20157;-64
2023/12/30 02:49:20;;;;;;;2.72;1.95;;;12.40;49.20;;;;;;5053700;28;20166;-65
2023/12/30 02:51:48;;;;;;;3.72;1.33;;;12.30;49.10;;;;;;5045723;28;20131;-66
2023/12/30 02:54:17;;;;;;;5.45;1.73;;;12.30;49.10;;;;;;5051092;28;20054;-64
2023/12/30 02:56:45;;;;;;;1.65;1.25;;;12.30;49.20;;;;;;5052285;28;20052;-65
2023/12/30 02:59:15;;;;;;;2.92;1.20;;;12.40;49.20;;;;;;5047148;28;20163;-66
2023/12/30 03:01:43;;;;;;;2.20;1.45;;;12.40;49.10;;;;;;5050507;28;20483;-64
2023/12/30 03:04:12;;;;;;;4.93;1.88;;;12.40;49.10;;;;;;5051294;28;20056;-64
2023/12/30 03:06:40;;;;;;;1.83;1.17;;;12.40;49.10;;;;;;5048847;28;20498;-65
2023/12/30 03:09:08;;;;;;;3.25;1.80;;;12.40;49.10;;;;;;5052759;28;20055;-65
2023/12/30 03:11:36;;;;;;;3.35;1.67;;;12.40;49.20;;;;;;5046076;28;20052;-66
2023/12/30 03:14:04;;;;;;;3.35;1.98;;;12.30;49.10;;;;;;5042546;28;22310;-63
2023/12/30 03:16:35;;;;;;;2.83;1.67;;;12.30;49.10;;;;;;5051224;28;20143;-65
2023/12/30 03:19:03;;;;;;;2.85;1.60;;;12.30;49.20;;;;;;5055127;28;20056;-64
2023/12/30 03:21:31;;;;;;;3.72;1.75;;;12.20;49.10;;;;;;5052101;28;20063;-65
2023/12/30 03:24:00;;;;;;;3.90;1.20;;;12.20;49.30;;;;;;5046493;28;20474;-65
2023/12/30 03:26:28;;;;;;;3.17;1.80;;;12.20;49.30;;;;;;5053401;28;20422;-66
2023/12/30 03:28:56;;;;;;;2.75;1.60;;;12.30;49.30;;;;;;5051865;28;20049;-65
2023/12/30 03:31:26;;;;;;;2.70;1.20;;;12.30;49.40;;;;;;5042727;28;20052;-65
2023/12/30 03:33:57;;;;;;;2.30;1.40;;;12.40;49.30;;;;;;5047204;28;20055;-65
2023/12/30 03:36:25;;;;;;;3.72;1.73;;;12.40;49.20;;;;;;5054940;28;20084;-65
2023/12/30 03:38:54;;;;;;;2.08;1.48;;;12.40;49.10;;;;;;5049605;28;20056;-64
2023/12/30 03:41:22;;;;;;;3.35;1.50;;;12.40;49.70;;;;;;5047011;28;20048;-65
2023/12/30 03:43:50;;;;;;;3.47;1.40;;;12.30;49.10;;;;;;5047291;28;20048;-64
2023/12/30 03:46:19;;;;;;;1.92;1.25;;;12.20;49.20;;;;;;5051655;28;20155;-64
2023/12/30 03:48:47;;;;;;;6.88;1.60;;;12.20;49.20;;;;;;5047371;28;20075;-63
2023/12/30 03:51:17;;;;;;;3.67;1.45;;;12.10;49.30;;;;;;5052060;28;20065;-65
2023/12/30 03:53:45;;;;;;;2.15;1.35;;;12.00;49.30;;;;;;5044752;28;20064;-66
2023/12/30 03:56:13;;;;;;;5.50;1.83;;;11.90;49.30;;;;;;5050544;28;20141;-64
2023/12/30 03:58:41;;;;;;;2.10;1.40;;;11.90;49.40;;;;;;5054891;28;20071;-65
2023/12/30 04:01:09;;;;;;;4.53;1.60;;;11.80;49.40;;;;;;5048456;28;20110;-65
2023/12/30 04:03:38;;;;;;;1.98;1.10;;;11.80;49.50;;;;;;5048586;28;20512;-64
2023/12/30 04:06:06;;;;;;;5.88;1.83;;;11.70;49.50;;;;;;5043066;28;20056;-65
2023/12/30 04:08:36;;;;;;;3.05;1.77;;;11.70;49.60;;;;;;5048983;28;20057;-64
2023/12/30 04:11:04;;;;;;;1.65;1.35;;;11.60;49.60;;;;;;5047715;28;20427;-64
2023/12/30 04:13:33;;;;;;;4.90;1.55;;;11.60;49.60;;;;;;5054046;28;20470;-65
2023/12/30 04:16:01;;;;;;;2.58;1.60;;;11.50;49.70;;;;;;5040654;28;20606;-64
2023/12/30 04:18:29;;;;;;;2.50;1.65;;;11.50;49.70;;;;;;5052418;28;20074;-65
2023/12/30 04:20:57;;;;;;;6.07;2.00;;;11.40;49.60;;;;;;5043247;28;20053;-65
2023/12/30 04:23:26;;;;;;;2.40;1.52;;;11.40;49.70;;;;;;5047506;28;20053;-65
2023/12/30 04:25:55;;;;;;;5.07;1.52;;;11.30;49.70;;;;;;5045368;28;20052;-65
2023/12/30 04:28:24;;;;;;;2.65;1.45;;;11.30;49.80;;;;;;5048861;28;20044;-65
2023/12/30 04:30:52;;;;;;;1.67;1.30;;;11.20;50.50;;;;;;5052385;28;20687;-64
2023/12/30 04:33:20;;;;;;;3.95;1.55;;;11.20;50.00;;;;;;5047323;28;20060;-66
2023/12/30 04:35:49;;;;;;;1.52;1.20;;;11.20;50.00;;;;;;5043469;28;20064;-66
2023/12/30 04:38:18;;;;;;;9.23;1.25;;;11.10;50.10;;;;;;5054217;28;20497;-64
2023/12/30 04:40:46;;;;;;;2.97;1.45;;;11.10;50.20;;;;;;5048470;28;20041;-66
2023/12/30 04:43:16;;;;;;;3.83;1.60;;;11.10;50.10;;;;;;5050170;28;20052;-63
2023/12/30 04:45:44;;;;;;;3.15;1.63;;;11.10;50.20;;;;;;5051649;28;20120;-62
2023/12/30 04:48:12;;;;;;;5.88;2.10;;;11.10;50.20;;;;;;5057813;28;20524;-65
2023/12/30 04:50:40;;;;;;;1.75;1.48;;;11.10;50.20;;;;;;5052139;28;20087;-64
2023/12/30 04:53:08;;;;;;;3.03;1.42;;;11.10;50.20;;;;;;5052836;28;20045;-65
2023/12/30 04:55:36;;;;;;;3.00;1.58;;;11.00;50.10;;;;;;5032374;28;20064;-65
2023/12/30 04:58:05;;;;;;;5.45;1.40;;;11.00;50.20;;;;;;5029510;28;20057;-65
2023/12/30 05:00:34;;;;;;;2.30;1.58;;;11.00;50.10;;;;;;5032291;28;20147;-65
2023/12/30 05:03:03;;;;;;;5.38;1.85;;;11.00;50.10;;;;;;5031057;28;20065;-66
2023/12/30 05:05:32;;;;;;;2.60;1.27;;;10.90;50.10;;;;;;5031800;28;20063;-65
2023/12/30 05:08:00;;;;;;;3.42;1.80;;;10.90;50.10;;;;;;5027163;28;20499;-63
2023/12/30 05:10:31;;;;;;;3.22;1.25;;;10.90;50.10;;;;;;5037216;28;20060;-66
2023/12/30 05:13:01;;;;;;;4.53;1.77;;;10.90;50.80;;;;;;5033378;28;20048;-65
2023/12/30 05:15:30;;;;;;;4.93;1.63;;;10.80;50.10;;;;;;5035599;28;20057;-67
2023/12/30 05:17:59;;;;;;;2.28;1.48;;;10.70;50.20;;;;;;5026116;28;20091;-65
2023/12/30 05:20:28;;;;;;;2.10;1.65;;;10.70;50.30;;;;;;5030416;28;20517;-66
2023/12/30 05:22:59;;;;;;;1.50;1.40;;;10.70;50.30;;;;;;5033236;28;20056;-66
2023/12/30 05:25:29;;;;;;;4.63;1.45;;;10.70;50.30;;;;;;5034441;28;20056;-65
2023/12/30 05:27:57;;;;;;;2.00;1.30;;;10.70;50.30;;;;;;5019277;28;20049;-66
2023/12/30 05:30:25;;;;;;;2.90;1.52;;;10.70;51.00;;;;;;5032653;28;20856;-67
2023/12/30 05:32:54;;;;;;;2.38;1.35;;;10.70;50.40;;;;;;5028199;28;20111;-66
2023/12/30 05:35:24;;;;;;;4.63;2.33;;;10.70;50.40;;;;;;5033623;28;20128;-66
2023/12/30 05:37:52;;;;;;;5.57;2.00;;;10.60;51.00;;;;;;5029105;28;20045;-66
2023/12/30 05:40:20;;;;;;;3.08;2.17;;;10.60;50.30;;;;;;5034655;28;20064;-65
2023/12/30 05:42:48;;;;;;;2.80;1.33;;;10.60;50.30;;;;;;5031300;28;20526;-66
2023/12/30 05:45:17;;;;;;;2.70;1.58;;;10.60;50.30;;;;;;5028257;28;20071;-64
2023/12/30 05:47:45;;;;;;;2.00;1.33;;;10.60;50.30;;;;;;5027793;28;20045;-66
2023/12/30 05:50:14;;;;;;;4.85;1.80;;;10.60;50.30;;;;;;5033073;28;20048;-64
2023/12/30 05:52:43;;;;;;;6.20;1.40;;;10.60;50.50;;;;;;5029898;28;20061;-65
2023/12/30 05:55:11;;;;;;;10.05;3.10;;;10.60;50.50;;;;;;5048270;28;20056;-67
2023/12/30 05:57:40;;;;;;;2.97;1.88;;;10.60;50.50;;;;;;5047568;28;20109;-66
2023/12/30 06:00:10;;;;;;;3.72;2.38;;;10.50;50.40;;;;;;5048331;28;20049;-68
2023/12/30 06:02:38;;;;;;;1.98;1.40;;;10.50;50.40;;;;;;5053991;28;20052;-65
2023/12/30 06:05:07;;;;;;;2.75;1.73;;;10.50;50.40;;;;;;5054013;28;20066;-66
2023/12/30 06:07:38;;;;;;;2.10;1.30;;;10.50;50.40;;;;;;5054696;28;20491;-65
2023/12/30 06:10:09;;;;;;;4.80;1.63;;;10.50;50.40;;;;;;5042794;28;20502;-65
2023/12/30 06:12:37;;;;;;;5.90;2.42;;;10.50;50.50;;;;;;5053745;28;20052;-66
2023/12/30 06:15:06;;;;;;;3.60;1.63;;;10.50;50.50;;;;;;5053188;28;20064;-65
2023/12/30 06:17:34;;;;;;;4.15;1.20;;;10.50;50.60;;;;;;5054756;28;20056;-65
2023/12/30 06:20:04;;;;;;;1.02;0.77;;;10.50;50.60;;;;;;5046970;28;20673;-65
2023/12/30 06:22:32;;;;;;;0.85;0.82;;;10.50;50.60;;;;;;5054895;28;20059;-65
2023/12/30 06:25:01;;;;;;;1.98;1.17;;;10.50;50.60;;;;;;5051663;28;20197;-65
2023/12/30 06:27:30;;;;;;;2.53;1.67;;;10.50;50.70;;;;;;5050897;28;20144;-65
2023/12/30 06:29:59;;;;;;;1.73;1.40;;;10.50;50.70;;;;;;5044126;28;20076;-67
2023/12/30 06:32:27;;;;;;;2.15;1.40;;;10.50;50.70;;;;;;5050527;28;20063;-66
2023/12/30 06:34:55;;;;;;;2.40;1.40;;;10.50;50.60;;;;;;5051554;28;20048;-66
2023/12/30 06:37:24;;;;;;;2.40;1.42;;;10.50;50.60;;;;;;5054068;28;20068;-66
2023/12/30 06:39:53;;;;;;;7.28;2.17;;;10.50;50.60;;;;;;5041367;28;20059;-65
2023/12/30 06:42:21;;;;;;;4.18;1.85;;;10.50;50.60;;;;;;5048735;28;20347;-66
2023/12/30 06:44:50;;;;;;;5.13;1.73;;;10.50;50.60;;;;;;5050150;28;20052;-65
2023/12/30 06:47:19;;;;;;;3.83;1.60;;;10.50;50.60;;;;;;5047419;28;20048;-66
2023/12/30 06:49:47;;;;;;;2.35;1.85;;;10.40;50.60;;;;;;5046056;28;20056;-66
2023/12/30 06:52:19;;;;;;;1.92;1.52;;;10.40;50.60;;;;;;5054134;28;20049;-66
2023/12/30 06:54:47;;;;;;;2.97;1.70;;;10.40;50.70;;;;;;5050653;28;20044;-66
2023/12/30 06:57:29;;;;;;;3.20;1.48;;;10.40;50.80;;;;;;5053585;28;20056;-66
2023/12/30 06:59:59;;;;;;;2.08;1.42;;;10.50;50.80;;;;;;5045784;28;20048;-65
2023/12/30 07:02:27;;;;;;;2.15;1.40;;;10.60;50.80;;;;;;5043853;28;20057;-65
2023/12/30 07:04:55;;;;;;;1.48;1.38;;;10.70;50.80;;;;;;5055667;28;20736;-66
2023/12/30 07:07:24;;;;;;;1.70;1.17;;;10.80;50.80;;;;;;5048986;28;20444;-66
2023/12/30 07:09:52;;;;;;;4.55;1.50;;;10.90;51.40;;;;;;5040303;28;20060;-63
2023/12/30 07:12:20;;;;;;;8.00;2.30;;;11.00;50.60;;;;;;5050736;28;20391;-64
2023/12/30 07:14:48;;;;;;;1.52;1.33;;;11.10;50.50;;;;;;5050810;28;20055;-66
2023/12/30 07:17:18;;;;;;;1.95;1.70;;;11.10;50.50;;;;;;5039968;28;20053;-65
2023/12/30 07:19:47;;;;;;;3.72;1.58;;;11.20;50.50;;;;;;5044519;28;20049;-66
2023/12/30 07:22:19;;;;;;;1.55;1.45;;;11.20;50.40;;;;;;5050220;28;20057;-65
2023/12/30 07:24:47;;;;;;;1.60;1.42;;;11.30;50.40;;;;;;5049006;28;20538;-65
2023/12/30 07:27:15;;;;;;;1.88;1.17;;;11.40;50.40;;;;;;5052888;28;20058;-65
2023/12/30 07:29:44;;;;;;;6.60;1.70;;;11.40;50.90;;;;;;5046517;28;20051;-63
2023/12/30 07:32:12;;;;;;;3.50;1.45;;;11.30;50.20;;;;;;5044607;28;20063;-64
2023/12/30 07:34:42;;;;;;;5.57;1.95;;;11.40;50.30;;;;;;5046731;28;20125;-65
2023/12/30 07:37:10;;;;;;;2.38;1.50;;;11.40;50.30;;;;;;5049234;28;20056;-66
2023/12/30 07:39:38;;;;;;;2.10;1.42;;;11.40;50.20;;;;;;5047609;28;20622;-65
2023/12/30 07:42:07;;;;;;;4.05;1.70;;;11.40;50.30;;;;;;5046634;28;20055;-64
2023/12/30 07:44:37;;;;;;;3.05;1.73;;;11.40;50.30;;;;;;5049271;28;20434;-66
2023/12/30 07:47:06;;;;;;;5.13;1.77;;;11.50;50.40;;;;;;5050705;28;20051;-65
2023/12/30 07:49:36;;;;;;;3.78;1.50;;;11.60;50.30;;;;;;5052592;28;20147;-65
2023/12/30 07:52:06;;;;;;;4.72;1.77;;;11.80;50.40;;;;;;5041256;28;20872;-65
2023/12/30 07:54:34;;;;;;;3.10;1.52;;;11.90;50.20;;;;;;5047239;28;20535;-65
2023/12/30 07:57:03;;;;;;;2.70;1.33;;;12.00;50.10;;;;;;5050619;28;20088;-65
2023/12/30 07:59:31;;;;;;;3.47;1.38;;;12.10;50.10;;;;;;5053517;28;20071;-65
2023/12/30 08:02:00;;;;;;;2.85;1.60;;;12.20;50.00;;;;;;5037937;28;20051;-65
2023/12/30 08:04:28;;;;;;;2.65;1.85;;;12.30;49.90;;;;;;5046394;28;20056;-63
2023/12/30 08:06:56;;;;;;;4.60;1.95;;;12.30;49.80;;;;;;5050277;28;20926;-65
2023/12/30 08:09:26;;;;;;;2.70;2.05;;;12.30;49.70;;;;;;5053671;28;20040;-65
2023/12/30 08:11:54;;;;;;;2.50;1.30;;;12.40;49.70;;;;;;5046715;28;20439;-64
2023/12/30 08:14:30;;;;;;;;;;;12.40;49.60;;;;;;5051544;28;20053;-65
2023/12/30 08:16:59;;;;;;;2.17;1.70;;;12.30;49.60;;;;;;5046273;28;19936;-64
2023/12/30 08:19:27;;;;;;;10.30;1.67;;;12.20;49.60;;;;;;5052875;28;20766;-67
2023/12/30 08:21:55;;;;;;;3.05;1.42;;;12.10;49.70;;;;;;5048560;28;20063;-65
2023/12/30 08:24:24;;;;;;;3.58;1.85;;;12.00;49.80;;;;;;5053966;28;20059;-64
2023/12/30 08:26:54;;;;;;;4.85;1.85;;;12.00;49.80;;;;;;5048333;28;20044;-64
2023/12/30 08:29:22;;;;;;;2.90;1.35;;;11.90;49.90;;;;;;5052735;28;20109;-65
2023/12/30 08:31:51;;;;;;;2.05;1.50;;;11.90;49.90;;;;;;5043054;28;20524;-65
2023/12/30 08:34:20;;;;;;;2.78;1.67;;;11.90;49.90;;;;;;5048685;28;20052;-65
2023/12/30 08:36:49;;;;;;;3.08;1.60;;;11.90;49.90;;;;;;5052634;28;20057;-63
2023/12/30 08:39:17;;;;;;;4.07;1.85;;;11.90;49.90;;;;;;5055689;28;20044;-65
2023/12/30 08:41:45;;;;;;;2.15;1.50;;;11.90;50.00;;;;;;5040762;28;20052;-64
2023/12/30 08:44:15;;;;;;;4.55;1.77;;;11.90;50.00;;;;;;5053104;28;20048;-64
2023/12/30 08:48:10;;;;;;;3.35;1.67;;;11.90;50.00;;;;;;4986161;28;20432;-63
2023/12/30 08:50:39;;;;;;;3.20;1.98;;;11.90;49.90;;;;;;5025418;28;20169;-65
2023/12/30 08:53:07;;;;;;;7.50;1.80;;;11.80;50.00;;;;;;5026737;28;20095;-64
2023/12/30 08:55:35;;;;;;;4.93;1.70;;;11.80;50.00;;;;;;5018786;28;20057;-65
2023/12/30 08:58:04;;;;;;;2.92;1.48;;;11.80;50.10;;;;;;5017574;28;21456;-64
2023/12/30 09:00:33;;;;;;;1.75;1.27;;;11.80;50.10;;;;;;5024842;28;20049;-66
2023/12/30 09:03:02;;;;;;;3.67;1.75;;;11.90;50.10;;;;;;5026042;28;20054;-66
2023/12/30 09:05:33;;;;;;;3.25;1.50;;;11.90;50.00;;;;;;5017359;28;20074;-65
2023/12/30 09:08:03;;;;;;;4.93;1.50;;;12.00;50.10;;;;;;5022255;28;20858;-65
2023/12/30 09:10:32;;;;;;;3.90;1.73;;;12.00;50.10;;;;;;5028242;28;20057;-67
2023/12/30 09:13:02;;;;;;;2.55;1.55;;;12.10;50.10;;;;;;5021315;28;20385;-66
2023/12/30 09:15:41;;;;;;;4.60;1.85;;;12.20;50.10;;;;;;5030845;28;20204;-65
2023/12/30 09:18:09;;;;;;;2.20;1.40;;;12.30;50.20;;;;;;5003634;28;20523;-66
2023/12/30 09:20:44;;;;;;;4.97;1.63;;;12.40;50.30;;;;;;5024095;28;20061;-65
2023/12/30 09:23:12;;;;;;;1.38;1.05;;;12.60;50.40;;;;;;5029177;28;20138;-65
2023/12/30 09:25:42;;;;;;;2.03;1.40;;;12.70;50.30;;;;;;5025584;28;20045;-65
2023/12/30 09:28:11;;;;;;;3.55;1.58;;;12.90;50.20;;;;;;5015451;28;20041;-67
2023/12/30 09:30:40;;;;;;;2.80;1.15;;;13.00;50.10;;;;;;5023303;28;20057;-66
2023/12/30 09:33:09;;;;;;;4.10;1.42;;;13.10;50.10;;;;;;5025008;28;20150;-65
2023/12/30 09:35:39;;;;;;;2.15;1.42;;;13.30;50.20;;;;;;5026544;28;20057;-65
2023/12/30 09:38:09;;;;;;;1.73;1.38;;;13.50;50.30;;;;;;5027205;28;20061;-64
2023/12/30 09:40:38;;;;;;;3.90;2.13;;;13.70;50.10;;;;;;5026078;28;20385;-64
2023/12/30 09:43:07;;;;;;;4.90;2.22;;;14.00;50.00;;;;;;5024125;28;20072;-65
2023/12/30 09:45:38;;;;;;;3.38;1.63;;;14.30;49.90;;;;;;5030176;28;20064;-66
2023/12/30 09:48:09;;;;;;;1.73;1.00;;;14.60;49.60;;;;;;5016468;28;20060;-66
2023/12/30 09:50:38;;;;;;;2.60;1.58;;;15.00;49.20;;;;;;5014465;28;20845;-64
2023/12/30 09:53:06;;;;;;;3.22;1.95;;;15.50;48.70;;;;;;5014564;28;20065;-62
2023/12/30 09:55:36;;;;;;;4.13;1.80;;;16.10;48.40;;;;;;5014911;28;20631;-66
2023/12/30 09:58:05;;;;;;;5.57;1.42;;;16.70;47.70;;;;;;5016025;28;22274;-64
2023/12/30 10:00:38;;;;;;;3.63;1.33;;;17.30;47.20;;;;;;5013609;28;20131;-61
2023/12/30 10:03:07;;;;;;;1.50;1.10;;;17.80;46.20;;;;;;5002605;28;20154;-62
2023/12/30 10:05:36;;;;;;;4.10;1.23;;;18.20;45.40;;;;;;4993138;28;20076;-63
2023/12/30 10:08:05;;;;;;;1.17;1.08;;;18.40;44.90;;;;;;4980348;28;20053;-61
2023/12/30 10:10:43;;;;;;;4.82;1.83;;;18.80;44.80;;;;;;4993402;28;20112;-63
2023/12/30 10:13:12;;;;;;;2.75;1.63;;;19.00;44.20;;;;;;4989084;28;20150;-61
2023/12/30 10:15:42;;;;;;;1.85;1.50;;;19.20;43.80;;;;;;4989762;28;20045;-65
2023/12/30 10:18:13;;;;;;;2.53;1.38;;;19.50;44.00;;;;;;4988263;28;20045;-65
2023/12/30 10:20:44;;;;;;;3.47;1.55;;;20.00;44.50;;;;;;5002151;28;20508;-65
2023/12/30 10:23:13;;;;;;;2.25;1.40;;;20.30;43.20;;;;;;4992212;28;20119;-65
2023/12/30 10:25:43;;;;;;;3.88;1.60;;;20.60;42.80;;;;;;4989773;28;20141;-65
2023/12/30 10:28:12;;;;;;;2.30;1.45;;;20.90;42.60;;;;;;4987153;28;20465;-65
2023/12/30 10:30:41;;;;;;;2.38;1.48;;;21.40;42.40;;;;;;5002369;28;20061;-66
2023/12/30 10:33:11;;;;;;;3.10;1.70;;;21.70;41.80;;;;;;4990829;28;20073;-66
2023/12/30 10:35:42;;;;;;;3.78;1.60;;;21.80;41.80;;;;;;4996962;28;20046;-65
2023/12/30 10:38:12;;;;;;;5.60;1.50;;;21.90;40.90;;;;;;5002502;28;20076;-67
2023/12/30 10:40:43;;;;;;;1.65;1.23;;;21.80;40.70;;;;;;4991012;28;20077;-65
2023/12/30 10:43:12;;;;;;;1.15;1.05;;;21.80;40.90;;;;;;4994232;28;20062;-66
2023/12/30 10:45:41;;;;;;;2.33;1.45;;;21.80;40.70;;;;;;4991235;28;20477;-65
2023/12/30 10:48:09;;;;;;;2.97;1.17;;;21.70;40.40;;;;;;4993825;28;20087;-66
2023/12/30 10:50:39;;;;;;;1.52;1.10;;;21.50;40.30;;;;;;4993038;28;20061;-65
2023/12/30 10:53:12;;;;;;;2.05;1.35;;;21.30;40.40;;;;;;4989201;28;20062;-66
2023/12/30 10:55:48;;;;;;;4.00;1.67;;;21.10;40.20;;;;;;4994657;28;20077;-65
2023/12/30 10:58:19;;;;;;;2.40;1.42;;;20.80;40.30;;;;;;4997554;28;20207;-65
2023/12/30 11:00:57;;;;;;;3.20;1.60;;;20.60;40.30;;;;;;4997712;28;20057;-66
2023/12/30 11:03:27;;;;;;;3.25;1.42;;;20.40;40.60;;;;;;4993889;28;20419;-65
2023/12/30 11:06:03;;;;;;;1.67;1.45;;;20.20;40.70;;;;;;4992027;28;20068;-67
2023/12/30 11:08:32;;;;;;;1.30;1.17;;;20.00;40.80;;;;;;4992434;28;20368;-67
2023/12/30 11:11:03;;;;;;;1.48;1.25;;;19.90;41.10;;;;;;4998224;28;20073;-65
2023/12/30 11:13:35;;;;;;;2.85;1.50;;;19.60;41.20;;;;;;5000244;28;20050;-65
2023/12/30 11:16:14;;;;;;;2.80;1.38;;;19.30;41.50;;;;;;4995055;28;20053;-66
2023/12/30 11:18:47;;;;;;;1.88;1.10;;;19.00;41.60;;;;;;5016499;28;20050;-66
2023/12/30 11:21:35;;;;;;;2.20;1.45;;;18.70;41.70;;;;;;4994102;28;20054;-67
2023/12/30 11:24:06;;;;;;;1.98;0.93;;;18.10;41.90;;;;;;5018472;28;20068;-66
2023/12/30 11:26:39;;;;;;;4.25;2.10;;;17.60;42.40;;;;;;4996608;28;20050;-64
2023/12/30 11:29:11;;;;;;;1.27;1.15;;;17.10;42.90;;;;;;4993753;28;20519;-65
2023/12/30 11:31:42;;;;;;;3.10;1.13;;;16.60;43.40;;;;;;5006693;28;20136;-65
2023/12/30 11:34:11;;;;;;;3.55;1.45;;;16.30;44.00;;;;;;4991320;28;21220;-65
2023/12/30 11:36:40;;;;;;;2.88;1.23;;;16.10;44.30;;;;;;4998537;28;20550;-65
2023/12/30 11:39:09;;;;;;;2.85;1.15;;;15.90;44.60;;;;;;4995707;28;20072;-67
2023/12/30 11:41:39;;;;;;;2.25;1.33;;;15.80;44.80;;;;;;4998151;28;20493;-67
2023/12/30 11:44:07;;;;;;;1.85;1.10;;;15.70;44.90;;;;;;4986377;28;20065;-66
2023/12/30 11:46:36;;;;;;;5.97;1.77;;;15.70;45.10;;;;;;4994183;28;20575;-66
2023/12/30 11:49:04;;;;;;;33.75;9.35;;;15.70;45.20;;;;;;4997925;28;20057;-66
2023/12/30 11:51:33;;;;;;;33.83;11.23;;;15.70;45.30;;;;;;4996570;28;20065;-66
2023/12/30 11:54:04;;;;;;;15.13;4.75;;;15.70;45.40;;;;;;4988561;28;20395;-64
2023/12/30 11:56:32;;;;;;;3.05;1.70;;;15.70;45.40;;;;;;4998859;28;20054;-65
2023/12/30 11:59:02;;;;;;;3.15;1.67;;;15.70;45.30;;;;;;4996102;28;20062;-65
2023/12/30 12:01:31;;;;;;;3.47;1.85;;;15.60;45.40;;;;;;4993718;28;20076;-67
2023/12/30 12:03:59;;;;;;;2.03;1.45;;;15.60;45.40;;;;;;4991604;28;20152;-64
2023/12/30 12:06:28;;;;;;;2.78;1.50;;;15.60;45.40;;;;;;4991624;28;20508;-65
2023/12/30 12:08:56;;;;;;;1.90;1.40;;;15.70;45.50;;;;;;4996918;28;20097;-65
2023/12/30 12:11:24;;;;;;;2.10;1.27;;;15.60;45.40;;;;;;4994134;28;20137;-65
2023/12/30 12:13:57;;;;;;;1.58;1.02;;;15.70;45.50;;;;;;4989808;28;20544;-65
2023/12/30 12:16:28;;;;;;;1.90;1.40;;;15.70;45.30;;;;;;4992631;28;20057;-67
2023/12/30 12:19:00;;;;;;;3.83;1.98;;;15.70;45.50;;;;;;4998208;28;20132;-69
2023/12/30 12:21:29;;;;;;;2.75;1.30;;;15.90;45.60;;;;;;4994811;28;20077;-66
2023/12/30 12:23:58;;;;;;;2.55;1.30;;;15.90;45.40;;;;;;4988733;28;20058;-66
2023/12/30 12:26:28;;;;;;;3.33;1.52;;;16.00;45.40;;;;;;5008871;28;20062;-65
2023/12/30 12:28:58;;;;;;;1.80;1.15;;;16.10;45.40;;;;;;4997796;28;20058;-67
2023/12/30 12:31:31;;;;;;;3.53;1.50;;;16.10;45.40;;;;;;4995432;28;20143;-67
2023/12/30 12:34:00;;;;;;;2.95;1.50;;;16.20;45.30;;;;;;5002796;28;20058;-65
2023/12/30 12:36:29;;;;;;;2.05;1.20;;;16.20;45.30;;;;;;5002145;28;20107;-66
2023/12/30 12:38:58;;;;;;;2.88;1.10;;;16.30;45.30;;;;;;4991832;28;20065;-66
2023/12/30 12:41:26;;;;;;;1.73;1.38;;;16.40;45.30;;;;;;4999898;28;20558;-65
2023/12/30 12:43:55;;;;;;;3.00;1.10;;;16.40;45.20;;;;;;4987261;28;20065;-67
2023/12/30 12:46:23;;;;;;;2.75;1.35;;;16.50;45.20;;;;;;4995378;28;20424;-66
2023/12/30 12:48:53;;;;;;;2.55;1.20;;;16.50;45.20;;;;;;4991874;28;20050;-65
2023/12/30 12:51:21;;;;;;;1.27;1.17;;;16.50;45.10;;;;;;4993359;28;20447;-66
2023/12/30 12:53:49;;;;;;;2.13;1.40;;;16.60;45.10;;;;;;4988871;28;20052;-66
2023/12/30 12:56:18;;;;;;;1.55;1.33;;;16.60;45.10;;;;;;4990053;28;20153;-66
2023/12/30 12:58:46;;;;;;;2.45;1.20;;;16.70;45.10;;;;;;4997236;28;20069;-64